createdAt,value
2022-11-14T00:02:29.983Z,8.63
2022-11-14T00:05:35.441Z,8.80
2022-11-14T00:08:38.167Z,8.67
2022-11-14T00:11:40.884Z,8.60
2022-11-14T00:14:43.642Z,8.70
2022-11-14T00:17:46.719Z,9.93
2022-11-14T00:20:52.461Z,9.60
2022-11-14T00:23:55.419Z,9.73
2022-11-14T00:26:58.190Z,9.47
2022-11-14T00:30:00.903Z,9.60
2022-11-14T00:33:04.053Z,9.53
2022-11-14T00:36:08.585Z,9.70
2022-11-14T00:39:13.894Z,9.50
2022-11-14T00:42:16.538Z,9.33
2022-11-14T00:45:19.502Z,9.63
2022-11-14T00:48:22.384Z,9.80
2022-11-14T00:51:26.621Z,10.33
2022-11-14T00:54:29.273Z,10.20
2022-11-14T00:57:32.326Z,11.03
2022-11-14T01:00:35.524Z,11.10
2022-11-14T01:03:38.251Z,11.00
2022-11-14T01:06:42.654Z,9.07
2022-11-14T01:09:45.775Z,9.10
2022-11-14T01:12:48.742Z,9.07
2022-11-14T01:15:52.429Z,9.70
2022-11-14T01:18:55.094Z,10.20
2022-11-14T01:22:03.227Z,10.20
2022-11-14T01:25:09.620Z,9.17
2022-11-14T01:28:15.037Z,9.83
2022-11-14T01:31:19.875Z,9.73
2022-11-14T01:34:22.650Z,9.77
2022-11-14T01:37:26.727Z,9.23
2022-11-14T01:40:29.546Z,8.97
2022-11-14T01:43:34.426Z,9.40
2022-11-14T01:46:40.100Z,9.50
2022-11-14T01:49:46.925Z,10.10
2022-11-14T01:52:51.330Z,9.67
2022-11-14T01:55:56.355Z,9.53
2022-11-14T01:59:04.771Z,9.50
2022-11-14T02:02:13.461Z,9.70
2022-11-14T02:05:18.449Z,9.30
2022-11-14T02:08:24.293Z,9.60
2022-11-14T02:11:30.982Z,9.07
2022-11-14T02:14:35.527Z,9.63
2022-11-14T02:17:38.218Z,9.93
2022-11-14T02:20:43.802Z,9.70
2022-11-14T02:23:46.516Z,9.57
2022-11-14T02:26:49.249Z,10.60
2022-11-14T02:29:51.995Z,10.70
2022-11-14T02:33:10.391Z,10.93
2022-11-14T02:36:15.566Z,11.07
2022-11-14T02:39:18.710Z,11.33
2022-11-14T02:42:21.466Z,10.23
2022-11-14T02:45:24.625Z,10.90
2022-11-14T02:48:27.437Z,10.90
2022-11-14T02:51:32.015Z,10.90
2022-11-14T02:54:34.706Z,10.47
2022-11-14T02:57:37.842Z,10.97
2022-11-14T03:01:05.990Z,10.63
2022-11-14T03:04:04.594Z,10.73
2022-11-14T03:07:08.776Z,11.23
2022-11-14T03:10:12.039Z,10.27
2022-11-14T03:13:15.263Z,10.83
2022-11-14T03:16:18.373Z,10.73
2022-11-14T03:19:21.280Z,11.03
2022-11-14T03:22:25.773Z,10.60
2022-11-14T03:25:28.836Z,10.30
2022-11-14T03:28:31.870Z,10.10
2022-11-14T03:31:35.432Z,10.70
2022-11-14T03:34:38.539Z,10.03
2022-11-14T03:37:43.091Z,9.33
2022-11-14T03:40:45.968Z,10.23
2022-11-14T03:43:48.708Z,9.70
2022-11-14T03:46:53.151Z,9.97
2022-11-14T03:49:55.816Z,10.77
2022-11-14T03:53:00.277Z,11.23
2022-11-14T03:56:03.333Z,11.27
2022-11-14T03:59:06.669Z,12.53
2022-11-14T04:02:09.786Z,7.97
2022-11-14T04:05:13.266Z,13.07
2022-11-14T04:08:17.473Z,10.37
2022-11-14T04:11:20.699Z,10.00
2022-11-14T04:14:23.413Z,11.67
2022-11-14T04:17:26.539Z,13.00
2022-11-14T04:20:29.196Z,12.13
2022-11-14T04:23:33.817Z,12.33
2022-11-14T04:26:36.483Z,11.97
2022-11-14T04:29:39.200Z,12.67
2022-11-14T04:32:41.916Z,11.87
2022-11-14T04:35:44.731Z,12.60
2022-11-14T04:38:49.188Z,13.10
2022-11-14T04:41:52.231Z,13.87
2022-11-14T04:44:55.374Z,15.37
2022-11-14T04:47:58.057Z,13.67
2022-11-14T04:51:00.984Z,11.80
2022-11-14T04:54:05.241Z,12.50
2022-11-14T04:57:07.952Z,14.40
2022-11-14T05:00:11.983Z,14.23
2022-11-14T05:03:14.912Z,14.97
2022-11-14T05:06:18.065Z,15.87
2022-11-14T05:09:22.082Z,16.10
2022-11-14T05:12:25.113Z,16.17
2022-11-14T05:15:27.827Z,15.20
2022-11-14T05:18:31.118Z,15.97
2022-11-14T05:21:34.118Z,15.80
2022-11-14T05:24:38.720Z,12.83
2022-11-14T05:27:41.733Z,15.17
2022-11-14T05:30:44.413Z,13.03
2022-11-14T05:33:48.291Z,15.07
2022-11-14T05:36:51.016Z,14.50
2022-11-14T05:39:55.551Z,15.27
2022-11-14T05:42:58.271Z,15.53
2022-11-14T05:46:02.162Z,14.67
2022-11-14T05:49:04.885Z,16.43
2022-11-14T05:52:07.950Z,13.80
2022-11-14T05:55:12.418Z,15.60
2022-11-14T05:58:15.216Z,11.93
2022-11-14T06:01:20.527Z,13.13
2022-11-14T06:04:23.639Z,14.27
2022-11-14T06:07:26.372Z,12.97
2022-11-14T06:10:30.938Z,15.33
2022-11-14T06:13:34.764Z,15.80
2022-11-14T06:16:37.503Z,24.93
2022-11-14T06:19:40.212Z,17.57
2022-11-14T06:22:43.102Z,16.70
2022-11-14T06:25:47.180Z,14.53
2022-11-14T06:28:50.778Z,12.47
2022-11-14T06:31:53.453Z,19.40
2022-11-14T06:34:56.306Z,17.77
2022-11-14T06:38:00.863Z,15.50
2022-11-14T06:41:06.150Z,16.23
2022-11-14T06:44:09.661Z,15.23
2022-11-14T06:47:12.652Z,16.30
2022-11-14T06:50:15.448Z,16.90
2022-11-14T06:53:18.204Z,16.10
2022-11-14T06:56:22.629Z,9.00
2022-11-14T06:59:26.267Z,11.03
2022-11-14T07:02:29.001Z,10.43
2022-11-14T07:05:31.748Z,11.17
2022-11-14T07:08:35.389Z,14.87
2022-11-14T07:11:39.963Z,18.43
2022-11-14T07:14:42.702Z,16.10
2022-11-14T07:17:45.475Z,13.67
2022-11-14T07:20:48.720Z,14.80
2022-11-14T07:23:51.818Z,15.40
2022-11-14T07:26:55.839Z,14.13
2022-11-14T07:29:58.843Z,13.80
2022-11-14T07:33:01.934Z,15.30
2022-11-14T07:36:05.212Z,15.37
2022-11-14T07:39:08.175Z,14.43
2022-11-14T07:42:12.294Z,15.20
2022-11-14T07:45:15.802Z,12.77
2022-11-14T07:48:19.464Z,13.77
2022-11-14T07:51:22.577Z,8.07
2022-11-14T07:54:25.313Z,13.03
2022-11-14T07:57:29.431Z,14.20
2022-11-14T08:00:32.700Z,13.47
2022-11-14T08:03:37.919Z,13.53
2022-11-14T08:06:44.193Z,13.50
2022-11-14T08:09:46.921Z,13.03
2022-11-14T08:13:17.485Z,13.47
2022-11-14T08:16:22.342Z,13.60
2022-11-14T08:19:26.486Z,13.83
2022-11-14T08:22:29.409Z,12.33
2022-11-14T08:25:32.095Z,14.17
2022-11-14T08:28:36.588Z,13.77
2022-11-14T08:31:39.394Z,12.87
2022-11-14T08:34:42.361Z,9.73
2022-11-14T08:37:45.525Z,13.17
2022-11-14T08:40:48.397Z,12.57
2022-11-14T08:43:52.803Z,12.63
2022-11-14T08:46:55.545Z,9.03
2022-11-14T08:49:58.417Z,12.93
2022-11-14T08:53:01.177Z,12.70
2022-11-14T08:56:04.429Z,11.00
2022-11-14T08:59:08.413Z,10.70
2022-11-14T09:02:12.460Z,11.87
2022-11-14T09:05:15.507Z,11.67
2022-11-14T09:08:18.336Z,11.23
2022-11-14T09:11:21.259Z,11.20
2022-11-14T09:14:25.963Z,11.90
2022-11-14T09:17:28.784Z,7.67
2022-11-14T09:20:34.178Z,11.37
2022-11-14T09:23:40.365Z,10.77
2022-11-14T09:26:43.091Z,10.87
2022-11-14T09:29:47.591Z,7.77
2022-11-14T09:32:50.371Z,10.70
2022-11-14T09:35:57.966Z,9.07
2022-11-14T09:39:00.739Z,11.50
2022-11-14T09:42:20.291Z,11.17
2022-11-14T09:45:25.391Z,10.03
2022-11-14T09:48:32.160Z,11.90
2022-11-14T09:51:44.143Z,10.43
2022-11-14T09:54:53.073Z,10.03
2022-11-14T09:57:56.515Z,9.60
2022-11-14T10:01:09.499Z,9.23
2022-11-14T10:04:25.052Z,10.60
2022-11-14T10:07:39.076Z,10.03
2022-11-14T10:10:52.916Z,10.27
2022-11-14T10:14:20.587Z,10.37
2022-11-14T10:17:45.791Z,8.37
2022-11-14T10:20:55.034Z,9.60
2022-11-14T10:24:07.359Z,8.97
2022-11-14T10:27:19.523Z,8.77
2022-11-14T10:30:36.720Z,7.93
2022-11-14T10:33:51.635Z,6.27
2022-11-14T10:37:04.188Z,9.60
2022-11-14T10:40:18.920Z,7.77
2022-11-14T10:43:28.411Z,8.63
2022-11-14T10:46:37.963Z,6.83
2022-11-14T10:49:43.320Z,9.40
2022-11-14T10:52:47.601Z,6.17
2022-11-14T10:56:04.324Z,8.87
2022-11-14T10:59:10.178Z,9.63
2022-11-14T11:02:13.097Z,9.43
2022-11-14T11:05:19.555Z,9.10
2022-11-14T11:08:43.784Z,8.60
2022-11-14T11:11:57.340Z,9.40
2022-11-14T11:15:15.987Z,9.50
2022-11-14T11:18:27.852Z,10.97
2022-11-14T11:21:48.832Z,11.27
2022-11-14T11:24:51.682Z,11.23
2022-11-14T11:28:09.265Z,19.03
2022-11-14T11:31:12.475Z,8.57
2022-11-14T11:34:15.271Z,6.20
2022-11-14T11:37:22.994Z,8.17
2022-11-14T11:40:28.139Z,12.73
2022-11-14T11:43:53.921Z,18.83
2022-11-14T11:47:02.052Z,12.33
2022-11-14T11:50:06.120Z,4.97
2022-11-14T11:53:19.433Z,5.73
2022-11-14T11:56:26.961Z,6.57
2022-11-14T11:59:35.841Z,8.03
2022-11-14T12:02:49.502Z,6.93
2022-11-14T12:06:03.898Z,7.33
2022-11-14T12:09:16.403Z,4.90
2022-11-14T12:12:28.662Z,8.10
2022-11-14T12:15:44.777Z,5.80
2022-11-14T12:19:10.385Z,6.30
2022-11-14T12:22:44.809Z,6.83
2022-11-14T12:26:07.676Z,6.57
2022-11-14T12:29:32.064Z,6.30
2022-11-14T12:32:40.051Z,7.30
2022-11-14T12:35:52.431Z,5.47
2022-11-14T12:38:56.911Z,7.33
2022-11-14T12:42:06.489Z,8.50
2022-11-14T12:45:42.521Z,7.70
2022-11-14T12:48:46.404Z,6.67
2022-11-14T12:51:51.300Z,6.27
2022-11-14T12:54:54.054Z,6.03
2022-11-14T12:58:07.150Z,6.60
2022-11-14T13:01:24.471Z,6.23
2022-11-14T13:04:37.235Z,6.77
2022-11-14T13:07:49.351Z,5.20
2022-11-14T13:10:52.259Z,8.07
2022-11-14T13:14:20.630Z,5.33
2022-11-14T13:17:45.060Z,6.60
2022-11-14T13:21:13.662Z,7.73
2022-11-14T13:24:17.242Z,6.60
2022-11-14T13:27:52.347Z,7.03
2022-11-14T13:31:20.829Z,8.27
2022-11-14T13:34:37.277Z,4.20
2022-11-14T13:38:09.644Z,7.73
2022-11-14T13:41:46.691Z,9.47
2022-11-14T13:45:15.271Z,7.57
2022-11-14T13:48:47.657Z,7.40
2022-11-14T13:51:53.783Z,7.57
2022-11-14T13:54:56.996Z,6.33
2022-11-14T13:58:15.661Z,7.67
2022-11-14T14:01:40.091Z,4.33
2022-11-14T14:04:54.936Z,5.17
2022-11-14T14:08:12.535Z,3.70
2022-11-14T14:11:35.093Z,5.83
2022-11-14T14:14:57.125Z,9.57
2022-11-14T14:18:09.253Z,8.47
2022-11-14T14:21:26.657Z,7.40
2022-11-14T14:24:47.018Z,7.57
2022-11-14T14:28:02.670Z,7.73
2022-11-14T14:31:12.148Z,13.27
2022-11-14T14:34:23.616Z,3.90
2022-11-14T14:37:29.700Z,8.67
2022-11-14T14:40:34.466Z,8.27
2022-11-14T14:43:38.016Z,8.40
2022-11-14T14:46:40.841Z,5.50
2022-11-14T14:49:44.284Z,6.93
2022-11-14T14:52:56.656Z,7.43
2022-11-14T14:56:02.219Z,5.80
2022-11-14T14:59:17.304Z,7.43
2022-11-14T15:02:27.783Z,5.00
2022-11-14T15:05:31.096Z,7.10
2022-11-14T15:08:38.707Z,5.50
2022-11-14T15:11:44.388Z,5.50
2022-11-14T15:14:48.662Z,7.43
2022-11-14T15:17:51.865Z,6.30
2022-11-14T15:21:11.814Z,7.67
2022-11-14T15:24:18.645Z,7.47
2022-11-14T15:27:22.168Z,8.63
2022-11-14T15:30:26.939Z,7.87
2022-11-14T15:33:32.503Z,6.00
2022-11-14T15:36:35.327Z,5.73
2022-11-14T15:39:39.738Z,5.20
2022-11-14T15:42:42.709Z,7.00
2022-11-14T15:45:45.475Z,4.73
2022-11-14T15:48:48.323Z,8.20
2022-11-14T15:51:54.538Z,8.30
2022-11-14T15:54:58.639Z,15.40
2022-11-14T15:58:29.210Z,8.27
2022-11-14T16:01:26.319Z,8.97
2022-11-14T16:04:33.265Z,6.90
2022-11-14T16:07:36.199Z,4.63
2022-11-14T16:10:40.924Z,2.60
2022-11-14T16:13:43.655Z,9.80
2022-11-14T16:16:46.450Z,7.87
2022-11-14T16:19:49.215Z,4.70
2022-11-14T16:22:53.946Z,8.50
2022-11-14T16:25:57.967Z,14.33
2022-11-14T16:29:00.980Z,4.00
2022-11-14T16:32:03.738Z,11.53
2022-11-14T16:35:08.511Z,5.63
2022-11-14T16:38:13.683Z,9.80
2022-11-14T16:41:18.272Z,8.13
2022-11-14T16:44:21.867Z,6.17
2022-11-14T16:47:24.662Z,4.47
2022-11-14T16:50:27.791Z,8.50
2022-11-14T16:53:30.868Z,6.77
2022-11-14T16:56:35.229Z,6.00
2022-11-14T16:59:38.059Z,4.30
2022-11-14T17:02:41.600Z,7.27
2022-11-14T17:05:45.715Z,9.70
2022-11-14T17:08:48.729Z,7.17
2022-11-14T17:11:53.069Z,5.07
2022-11-14T17:14:55.795Z,5.27
2022-11-14T17:17:58.891Z,3.47
2022-11-14T17:21:05.839Z,4.93
2022-11-14T17:24:08.796Z,4.47
2022-11-14T17:27:13.774Z,7.03
2022-11-14T17:30:17.583Z,6.63
2022-11-14T17:33:20.368Z,6.03
2022-11-14T17:36:24.149Z,4.33
2022-11-14T17:39:27.219Z,7.73
2022-11-14T17:42:31.313Z,8.87
2022-11-14T17:45:37.879Z,6.37
2022-11-14T17:48:43.545Z,7.27
2022-11-14T17:51:46.623Z,8.83
2022-11-14T17:54:49.321Z,8.50
2022-11-14T17:57:53.514Z,4.60
2022-11-14T18:00:58.603Z,7.50
2022-11-14T18:04:06.112Z,7.83
2022-11-14T18:07:09.734Z,7.50
2022-11-14T18:10:12.746Z,11.83
2022-11-14T18:13:17.121Z,9.37
2022-11-14T18:16:21.453Z,8.13
2022-11-14T18:19:24.295Z,8.30
2022-11-14T18:22:27.709Z,8.80
2022-11-14T18:25:31.440Z,8.53
2022-11-14T18:28:35.548Z,6.10
2022-11-14T18:31:38.237Z,8.37
2022-11-14T18:34:42.023Z,10.77
2022-11-14T18:37:44.751Z,7.63
2022-11-14T18:40:50.643Z,11.53
2022-11-14T18:43:58.032Z,8.50
2022-11-14T18:47:00.808Z,11.60
2022-11-14T18:50:03.914Z,14.20
2022-11-14T18:53:06.717Z,12.40
2022-11-14T18:56:11.619Z,11.47
2022-11-14T18:59:15.684Z,11.60
2022-11-14T19:02:18.673Z,16.37
2022-11-14T19:05:21.467Z,15.30
2022-11-14T19:08:24.230Z,11.60
2022-11-14T19:11:45.380Z,13.43
2022-11-14T19:14:51.638Z,11.03
2022-11-14T19:17:54.433Z,10.57
2022-11-14T19:20:58.479Z,8.83
2022-11-14T19:24:01.340Z,7.47
2022-11-14T19:27:04.251Z,7.50
2022-11-14T19:30:09.967Z,5.80
2022-11-14T19:33:12.999Z,5.97
2022-11-14T19:36:32.332Z,9.77
2022-11-14T19:39:41.645Z,7.90
2022-11-14T19:42:45.102Z,10.10
2022-11-14T19:45:49.796Z,6.50
2022-11-14T19:48:56.933Z,7.50
2022-11-14T19:52:00.471Z,8.77
2022-11-14T19:55:04.576Z,11.00
2022-11-14T19:58:07.625Z,9.73
2022-11-14T20:01:13.545Z,9.20
2022-11-14T20:04:16.363Z,8.77
2022-11-14T20:07:19.179Z,7.53
2022-11-14T20:10:22.016Z,6.50
2022-11-14T20:13:24.938Z,7.50
2022-11-14T20:16:31.081Z,9.20
2022-11-14T20:19:33.839Z,6.23
2022-11-14T20:22:36.611Z,9.60
2022-11-14T20:25:40.599Z,11.70
2022-11-14T20:33:07.357Z,9.73
2022-11-14T20:36:13.835Z,7.57
2022-11-14T20:39:16.678Z,9.33
2022-11-14T20:42:19.452Z,8.10
2022-11-14T20:45:23.989Z,9.07
2022-11-14T20:48:30.165Z,12.00
2022-11-14T20:51:33.392Z,6.33
2022-11-14T20:54:36.667Z,8.10
2022-11-14T20:57:39.737Z,13.73
2022-11-14T21:00:45.113Z,14.30
2022-11-14T21:03:50.087Z,14.33
2022-11-14T21:06:53.138Z,11.87
2022-11-14T21:10:09.857Z,16.00
2022-11-14T21:13:31.209Z,14.80
2022-11-14T21:16:37.042Z,7.17
2022-11-14T21:19:41.418Z,9.73
2022-11-14T21:22:44.442Z,8.03
2022-11-14T21:25:47.223Z,11.67
2022-11-14T21:28:52.362Z,11.03
2022-11-14T21:31:55.693Z,13.77
2022-11-14T21:34:59.831Z,12.50
2022-11-14T21:38:03.308Z,13.80
2022-11-14T21:41:06.651Z,15.77
2022-11-14T21:44:13.130Z,12.03
2022-11-14T21:47:16.348Z,10.20
2022-11-14T21:50:20.540Z,14.40
2022-11-14T21:53:23.674Z,19.20
2022-11-14T21:56:29.049Z,9.43
2022-11-14T21:59:32.127Z,12.60
2022-11-14T22:02:52.669Z,9.77
2022-11-14T22:05:59.790Z,16.07
2022-11-14T22:09:02.582Z,7.63
2022-11-14T22:12:05.815Z,8.27
2022-11-14T22:15:09.615Z,7.37
2022-11-14T22:22:05.982Z,10.73
2022-11-14T22:25:09.988Z,12.73
2022-11-14T22:28:12.707Z,12.33
2022-11-14T22:31:17.205Z,9.17
2022-11-14T22:34:20.650Z,10.97
2022-11-14T22:37:24.725Z,6.97
2022-11-14T22:40:27.698Z,9.50
2022-11-14T22:43:32.215Z,8.70
2022-11-14T22:46:35.075Z,8.60
2022-11-14T22:49:37.826Z,8.87
2022-11-14T22:52:41.857Z,12.40
2022-11-14T22:55:48.904Z,17.03
2022-11-14T22:58:52.037Z,14.63
2022-11-14T23:01:56.259Z,15.80
2022-11-14T23:04:59.002Z,12.27
2022-11-14T23:08:03.469Z,17.03
2022-11-14T23:11:08.424Z,13.70
2022-11-14T23:14:14.371Z,10.07
2022-11-14T23:17:17.240Z,15.03
2022-11-14T23:20:20.669Z,8.10
2022-11-14T23:23:24.958Z,10.40
2022-11-14T23:26:29.020Z,14.27
2022-11-14T23:29:32.103Z,10.63
2022-11-14T23:32:35.177Z,12.40
2022-11-14T23:35:37.908Z,9.23
2022-11-14T23:38:42.313Z,8.97
2022-11-14T23:41:45.355Z,9.63
2022-11-14T23:44:48.441Z,9.63
2022-11-14T23:47:51.128Z,10.30
2022-11-14T23:50:55.887Z,9.97
2022-11-14T23:54:00.323Z,10.27
2022-11-14T23:57:04.786Z,10.70
